Flight Track Log - Related Links

Times and Time Zones

All times are in EST time to prevent confusion due to time zone crossing. See the N1ER flight status page for this flight to view local times or setup timezone preferences in your user account.

Time Position Orientation Groundspeed Altitude Reporting Facility
EST Latitude Longitude Course Direction KTS MPH feet Rate Location/Type
Mon 09:49:22 AM 45.4428 -93.2086 330° Northwest 78 90 2,400  Level Minneapolis Center
Mon 09:50:23 AM 45.4622 -93.2244 330° Northwest 81 93 2,500  Climbing Minneapolis Center
Mon 09:51:24 AM 45.4836 -93.2300 350° North 79 91 2,400  Descending Minneapolis Center
Mon 09:52:25 AM 45.4875 -93.2597 281° West 99 114 2,500 293 Climbing Minneapolis Center
Mon 09:53:27 AM 45.4578 -93.2544 173° South 108 124 3,000 244 Climbing Minneapolis Center
Mon 09:54:28 AM 45.4333 -93.2122 130° Southeast 112 129 3,000  Level Minneapolis Center
Mon 09:55:29 AM 45.4017 -93.1981 163° South 118 136 3,000 Level Minneapolis Center
Mon 10:16:52 AM 45.4833 -93.2667 North 141 162 3,100 Climbing Minneapolis TRACON
Mon 10:17:00 AM 45.5575 -93.2642 North  Level Estimated
Mon 10:17:40 AM 45.4500 -93.2667 180° South 135 155 3,100  Level Minneapolis TRACON
Mon 10:18:00 AM 45.5575 -93.2642 North  Level Estimated
Mon 10:18:34 AM 45.4167 -93.2500 161° South 138 159 3,100  Level Minneapolis TRACON
Mon 10:19:00 AM 45.5575 -93.2642 North  Level Estimated
Mon 10:20:06 AM 45.3658 -93.2150 154° Southeast 131 151 3,100  Level Minneapolis Center
Mon 10:21:07 AM 45.3447 -93.1747 127° Southeast 127 146 3,100  Level Minneapolis Center
Mon 10:22:09 AM 45.3219 -93.1361 130° Southeast 129 148 3,100  Level Minneapolis Center
Mon 10:23:10 AM 45.2986 -93.0994 132° Southeast 127 146 3,100  Level Minneapolis Center
Mon 10:24:12 AM 45.2744 -93.0622 133° Southeast 128 147 3,100  Level Minneapolis Center
Mon 10:25:14 AM 45.2500 -93.0250 133° Southeast 128 147 3,100 -49 Level Minneapolis Center
Mon 10:26:15 AM 45.2275 -92.9856 129° Southeast 129 148 3,000  Descending Minneapolis Center
Mon 10:27:17 AM 45.1936 -92.9492 143° Southeast 130 150 3,100 49 Climbing Minneapolis Center
Mon 10:28:18 AM 45.1542 -92.9472 178° South 138 159 3,100 -49 Level Minneapolis Center
Mon 10:29:20 AM 45.1358 -92.9800 232° Southwest 126 145 3,000  Descending Minneapolis Center
Mon 10:30:22 AM 45.1464 -93.0167 292° West 102 117 3,100 -146 Climbing Minneapolis Center
Mon 10:31:23 AM 45.1386 -93.0583 255° West 108 124 2,700 -244 Descending Minneapolis Center
Mon 10:32:25 AM 45.1447 -93.0919 284° West 90 104 2,600 -293 Descending Minneapolis Center
Mon 10:33:26 AM 45.1439 -93.1233 268° West 79 91 2,100 -488 Descending Minneapolis Center
Mon 10:34:28 AM 45.1442 -93.1561 271° West 83 96 1,600 -484 Descending Minneapolis Center
Mon 10:35:30 AM 45.1444 -93.1911 271° West 75 86 1,100 -484 Descending Minneapolis Center

Login

Don't have an account? Register now (free) for customized features, flight alerts, and more!